Time,TemperatureF,DewpointF,PressureIn,WindDirection,WindDirectionDegrees,WindSpeedMPH,WindSpeedGustMPH,Humidity,HourlyPrecipIn,Conditions,Clouds,dailyrainin,SoftwareType,DateUTC
2013-02-22 00:11:00,36.5,34.0,30.33,SE,137,2.0,6.0,90,0.19,,,0.04,weatherlink.com 1.10,2013-02-22 05:11:00,
2013-02-22 00:26:00,36.3,34.0,30.33,ESE,108,2.0,7.0,92,0.19,,,0.08,weatherlink.com 1.10,2013-02-22 05:26:00,
2013-02-22 00:41:00,36.4,34.0,30.32,ESE,103,3.0,7.0,91,0.16,,,0.12,weatherlink.com 1.10,2013-02-22 05:41:00,
2013-02-22 00:56:00,36.2,34.0,30.37,ESE,114,0.0,3.0,92,0.16,,,0.15,weatherlink.com 1.10,2013-02-22 05:56:00,
2013-02-22 01:11:00,36.1,34.0,30.35,ESE,103,2.0,4.0,93,0.13,,,0.17,weatherlink.com 1.10,2013-02-22 06:11:00,
2013-02-22 01:26:00,35.7,34.0,30.35,SE,134,2.0,4.0,93,0.10,,,0.19,weatherlink.com 1.10,2013-02-22 06:26:00,
2013-02-22 01:41:00,35.5,34.0,30.34,ESE,107,3.0,3.0,94,0.10,,,0.22,weatherlink.com 1.10,2013-02-22 06:41:00,
2013-02-22 01:56:00,35.6,34.0,30.35,ESE,107,2.0,3.0,94,0.09,,,0.24,weatherlink.com 1.10,2013-02-22 06:56:00,
2013-02-22 02:11:00,35.7,34.0,30.30,East,100,5.0,9.0,95,0.09,,,0.26,weatherlink.com 1.10,2013-02-22 07:11:00,
2013-02-22 02:26:00,35.9,35.0,30.32,SE,134,1.0,7.0,95,0.07,,,0.26,weatherlink.com 1.10,2013-02-22 07:26:00,
2013-02-22 02:41:00,36.0,35.0,30.32,East,90,5.0,6.0,95,0.04,,,0.26,weatherlink.com 1.10,2013-02-22 07:41:00,
2013-02-22 02:56:00,35.6,34.0,30.32,East,89,5.0,7.0,94,0.03,,,0.27,weatherlink.com 1.10,2013-02-22 07:56:00,
2013-02-22 03:11:00,35.4,34.0,30.31,East,96,3.0,6.0,95,0.02,,,0.28,weatherlink.com 1.10,2013-02-22 08:11:00,
2013-02-22 03:26:00,35.1,34.0,30.30,East,96,1.0,7.0,95,0.03,,,0.29,weatherlink.com 1.10,2013-02-22 08:26:00,
2013-02-22 03:41:00,35.0,34.0,30.29,East,93,7.0,10.0,95,0.04,,,0.30,weatherlink.com 1.10,2013-02-22 08:41:00,
2013-02-22 03:56:00,34.7,34.0,30.27,East,95,2.0,8.0,95,0.05,,,0.32,weatherlink.com 1.10,2013-02-22 08:56:00,
2013-02-22 04:11:00,34.8,34.0,30.28,ESE,102,3.0,9.0,95,0.04,,,0.32,weatherlink.com 1.10,2013-02-22 09:11:00,
2013-02-22 04:26:00,34.8,34.0,30.29,East,98,3.0,6.0,95,0.03,,,0.32,weatherlink.com 1.10,2013-02-22 09:26:00,
2013-02-22 04:41:00,34.8,34.0,30.29,East,90,1.0,6.0,95,0.03,,,0.33,weatherlink.com 1.10,2013-02-22 09:41:00,
2013-02-22 04:56:00,34.6,33.0,30.29,East,84,1.0,6.0,95,0.01,,,0.33,weatherlink.com 1.10,2013-02-22 09:56:00,
2013-02-22 05:11:00,34.4,33.0,30.29,East,95,0.0,5.0,96,0.02,,,0.34,weatherlink.com 1.10,2013-02-22 10:11:00,
2013-02-22 05:26:00,34.1,33.0,30.30,East,98,0.0,6.0,96,0.02,,,0.34,weatherlink.com 1.10,2013-02-22 10:26:00,
2013-02-22 05:41:00,33.9,33.0,30.32,East,96,5.0,6.0,96,0.02,,,0.35,weatherlink.com 1.10,2013-02-22 10:41:00,
2013-02-22 05:56:00,33.7,33.0,30.31,East,100,3.0,5.0,96,0.02,,,0.35,weatherlink.com 1.10,2013-02-22 10:56:00,
2013-02-22 06:11:00,33.7,33.0,30.32,East,101,2.0,5.0,96,0.01,,,0.35,weatherlink.com 1.10,2013-02-22 11:11:00,
2013-02-22 06:26:00,33.6,33.0,30.32,ESE,103,4.0,8.0,96,0.01,,,0.35,weatherlink.com 1.10,2013-02-22 11:26:00,
2013-02-22 06:42:00,33.7,33.0,30.32,ESE,109,1.0,4.0,95,0.01,,,0.36,weatherlink.com 1.10,2013-02-22 11:42:00,
2013-02-22 06:57:00,33.5,32.0,30.33,East,94,3.0,5.0,95,0.01,,,0.36,weatherlink.com 1.10,2013-02-22 11:57:00,
2013-02-22 07:12:00,33.3,32.0,30.33,ESE,119,3.0,5.0,95,0.01,,,0.36,weatherlink.com 1.10,2013-02-22 12:12:00,
2013-02-22 07:27:00,33.3,32.0,30.32,ESE,110,0.0,5.0,94,0.01,,,0.36,weatherlink.com 1.10,2013-02-22 12:27:00,
2013-02-22 07:42:00,33.4,32.0,30.32,SE,137,0.0,5.0,93,0.00,,,0.36,weatherlink.com 1.10,2013-02-22 12:42:00,
2013-02-22 07:57:00,33.5,32.0,30.31,SE,134,3.0,7.0,92,0.00,,,0.36,weatherlink.com 1.10,2013-02-22 12:57:00,
2013-02-22 08:12:00,33.7,31.0,30.31,SE,140,1.0,5.0,91,0.00,,,0.36,weatherlink.com 1.10,2013-02-22 13:12:00,
2013-02-22 08:27:00,33.9,32.0,30.32,SE,126,0.0,0.0,91,0.00,,,0.36,weatherlink.com 1.10,2013-02-22 13:27:00,
2013-02-22 08:42:00,34.1,32.0,30.32,SE,126,0.0,1.0,92,0.00,,,0.36,weatherlink.com 1.10,2013-02-22 13:42:00,
2013-02-22 08:57:00,34.3,32.0,30.32,SE,126,0.0,2.0,91,0.00,,,0.36,weatherlink.com 1.10,2013-02-22 13:57:00,
2013-02-22 09:12:00,34.5,33.0,30.33,SE,126,0.0,2.0,92,0.00,,,0.36,weatherlink.com 1.10,2013-02-22 14:12:00,
2013-02-22 09:27:00,34.5,33.0,30.33,ESE,123,0.0,3.0,92,0.00,,,0.36,weatherlink.com 1.10,2013-02-22 14:27:00,
2013-02-22 09:42:00,34.5,33.0,30.32,ESE,107,1.0,3.0,93,0.00,,,0.36,weatherlink.com 1.10,2013-02-22 14:42:00,
2013-02-22 09:57:00,34.7,32.0,30.32,ESE,117,2.0,4.0,91,0.00,,,0.36,weatherlink.com 1.10,2013-02-22 14:57:00,
2013-02-22 10:12:00,34.8,32.0,30.32,ESE,105,7.0,7.0,89,0.00,,,0.36,weatherlink.com 1.10,2013-02-22 15:12:00,
2013-02-22 10:27:00,35.3,32.0,30.31,East,91,1.0,6.0,89,0.00,,,0.36,weatherlink.com 1.10,2013-02-22 15:27:00,
2013-02-22 10:42:00,35.7,33.0,30.31,East,91,1.0,3.0,89,0.00,,,0.36,weatherlink.com 1.10,2013-02-22 15:42:00,
2013-02-22 10:57:00,36.1,33.0,30.31,East,91,1.0,3.0,87,0.00,,,0.36,weatherlink.com 1.10,2013-02-22 15:57:00,
2013-02-22 11:12:00,36.4,33.0,30.31,East,97,0.0,4.0,87,0.00,,,0.36,weatherlink.com 1.10,2013-02-22 16:12:00,
2013-02-22 11:27:00,36.8,33.0,30.30,East,96,0.0,3.0,87,0.00,,,0.36,weatherlink.com 1.10,2013-02-22 16:27:00,
2013-02-22 11:42:00,37.1,34.0,30.30,ESE,103,2.0,3.0,87,0.00,,,0.36,weatherlink.com 1.10,2013-02-22 16:42:00,
2013-02-22 11:57:00,37.3,34.0,30.29,East,91,2.0,5.0,86,0.00,,,0.36,weatherlink.com 1.10,2013-02-22 16:57:00,
2013-02-22 12:12:00,37.3,34.0,30.29,East,92,0.0,5.0,86,0.00,,,0.36,weatherlink.com 1.10,2013-02-22 17:12:00,
2013-02-22 12:27:00,37.2,34.0,30.28,East,92,2.0,3.0,87,0.00,,,0.36,weatherlink.com 1.10,2013-02-22 17:27:00,
2013-02-22 12:42:00,37.0,34.0,30.28,SE,135,0.0,2.0,88,0.00,,,0.36,weatherlink.com 1.10,2013-02-22 17:42:00,
2013-02-22 12:57:00,37.0,34.0,30.27,ESE,107,0.0,3.0,89,0.00,,,0.36,weatherlink.com 1.10,2013-02-22 17:57:00,
2013-02-22 13:12:00,37.0,34.0,30.27,ESE,106,0.0,3.0,90,0.00,,,0.36,weatherlink.com 1.10,2013-02-22 18:12:00,
2013-02-22 13:27:00,36.9,35.0,30.26,ESE,106,0.0,1.0,91,0.00,,,0.36,weatherlink.com 1.10,2013-02-22 18:27:00,
2013-02-22 13:42:00,36.9,35.0,30.26,ESE,106,0.0,2.0,93,0.00,,,0.36,weatherlink.com 1.10,2013-02-22 18:42:00,
2013-02-22 13:57:00,37.2,36.0,30.26,ESE,106,0.0,1.0,94,0.00,,,0.36,weatherlink.com 1.10,2013-02-22 18:57:00,
2013-02-22 14:12:00,37.2,36.0,30.26,WSW,258,3.0,3.0,94,0.00,,,0.36,weatherlink.com 1.10,2013-02-22 19:12:00,
2013-02-22 14:27:00,37.0,36.0,30.27,WSW,252,0.0,3.0,94,0.00,,,0.36,weatherlink.com 1.10,2013-02-22 19:27:00,
2013-02-22 14:42:00,37.0,36.0,30.26,WSW,252,0.0,0.0,95,0.00,,,0.36,weatherlink.com 1.10,2013-02-22 19:42:00,
2013-02-22 14:57:00,37.2,36.0,30.25,WSW,252,0.0,1.0,95,0.00,,,0.36,weatherlink.com 1.10,2013-02-22 19:57:00,
2013-02-22 15:12:00,37.6,37.0,30.25,WSW,252,0.0,0.0,96,0.00,,,0.36,weatherlink.com 1.10,2013-02-22 20:12:00,
2013-02-22 15:27:00,37.9,37.0,30.25,WSW,252,0.0,1.0,96,0.00,,,0.36,weatherlink.com 1.10,2013-02-22 20:27:00,
2013-02-22 15:42:00,38.0,37.0,30.25,South,169,0.0,1.0,96,0.00,,,0.36,weatherlink.com 1.10,2013-02-22 20:42:00,
2013-02-22 15:57:00,38.1,37.0,30.23,South,169,0.0,1.0,96,0.00,,,0.36,weatherlink.com 1.10,2013-02-22 20:57:00,
2013-02-22 16:12:00,38.3,37.0,30.23,South,169,0.0,2.0,96,0.00,,,0.36,weatherlink.com 1.10,2013-02-22 21:12:00,
2013-02-22 16:27:00,38.7,38.0,30.24,South,169,0.0,1.0,96,0.00,,,0.36,weatherlink.com 1.10,2013-02-22 21:27:00,
2013-02-22 16:57:00,39.3,39.0,30.23,SSE,168,1.0,2.0,97,0.00,,,0.36,weatherlink.com 1.10,2013-02-22 21:57:00,
2013-02-22 17:12:00,39.5,39.0,30.22,SSE,168,0.0,2.0,97,0.00,,,0.36,weatherlink.com 1.10,2013-02-22 22:12:00,
2013-02-22 17:27:00,39.7,39.0,30.22,SSE,168,0.0,1.0,97,0.00,,,0.36,weatherlink.com 1.10,2013-02-22 22:27:00,
2013-02-22 17:42:00,39.8,39.0,30.22,SSE,168,2.0,2.0,96,0.00,,,0.36,weatherlink.com 1.10,2013-02-22 22:42:00,
2013-02-22 17:57:00,39.8,39.0,30.22,SSE,168,0.0,2.0,96,0.00,,,0.36,weatherlink.com 1.10,2013-02-22 22:57:00,
2013-02-22 18:12:00,39.8,39.0,30.22,SSE,168,2.0,3.0,97,0.00,,,0.36,weatherlink.com 1.10,2013-02-22 23:12:00,
2013-02-22 18:27:00,39.6,39.0,30.22,SSE,168,0.0,2.0,96,0.00,,,0.36,weatherlink.com 1.10,2013-02-22 23:27:00,
2013-02-22 18:42:00,39.7,39.0,30.23,SSE,168,0.0,3.0,96,0.00,,,0.36,weatherlink.com 1.10,2013-02-22 23:42:00,
2013-02-22 18:57:00,39.8,39.0,30.23,SSE,168,0.0,3.0,95,0.00,,,0.36,weatherlink.com 1.10,2013-02-22 23:57:00,
2013-02-22 19:12:00,39.9,39.0,30.22,SSE,168,1.0,2.0,95,0.00,,,0.36,weatherlink.com 1.10,2013-02-23 00:12:00,
2013-02-22 19:27:00,40.0,39.0,30.23,SSE,168,1.0,2.0,95,0.00,,,0.36,weatherlink.com 1.10,2013-02-23 00:27:00,
2013-02-22 19:42:00,40.0,39.0,30.23,SSE,168,0.0,3.0,95,0.00,,,0.36,weatherlink.com 1.10,2013-02-23 00:42:00,
2013-02-22 19:57:00,39.9,38.0,30.22,SSE,168,0.0,1.0,94,0.00,,,0.36,weatherlink.com 1.10,2013-02-23 00:57:00,
2013-02-22 20:12:00,39.8,38.0,30.22,SSE,168,0.0,0.0,94,0.00,,,0.36,weatherlink.com 1.10,2013-02-23 01:12:00,
2013-02-22 20:27:00,39.8,39.0,30.23,SSE,168,0.0,0.0,95,0.00,,,0.36,weatherlink.com 1.10,2013-02-23 01:27:00,
2013-02-22 20:42:00,39.7,38.0,30.23,SSE,168,0.0,1.0,94,0.00,,,0.36,weatherlink.com 1.10,2013-02-23 01:42:00,
2013-02-22 20:57:00,39.4,38.0,30.23,SSE,166,0.0,2.0,95,0.00,,,0.36,weatherlink.com 1.10,2013-02-23 01:57:00,
2013-02-22 21:12:00,39.2,38.0,30.23,SSE,166,0.0,1.0,95,0.00,,,0.36,weatherlink.com 1.10,2013-02-23 02:12:00,
2013-02-22 21:27:00,39.1,38.0,30.24,SSE,166,0.0,2.0,95,0.00,,,0.36,weatherlink.com 1.10,2013-02-23 02:27:00,
2013-02-22 21:42:00,39.0,38.0,30.24,SSE,166,0.0,0.0,95,0.00,,,0.36,weatherlink.com 1.10,2013-02-23 02:42:00,
2013-02-22 21:57:00,38.8,38.0,30.22,SSE,157,1.0,3.0,96,0.00,,,0.36,weatherlink.com 1.10,2013-02-23 02:57:00,
2013-02-22 22:12:00,38.7,38.0,30.21,SE,124,1.0,4.0,96,0.00,,,0.36,weatherlink.com 1.10,2013-02-23 03:12:00,
2013-02-22 22:27:00,38.6,38.0,30.21,ESE,121,2.0,5.0,96,0.00,,,0.36,weatherlink.com 1.10,2013-02-23 03:27:00,
2013-02-22 22:42:00,38.6,38.0,30.21,ESE,121,1.0,2.0,97,0.00,,,0.36,weatherlink.com 1.10,2013-02-23 03:42:00,
2013-02-22 22:57:00,38.7,38.0,30.21,ESE,121,0.0,1.0,97,0.00,,,0.36,weatherlink.com 1.10,2013-02-23 03:57:00,
2013-02-22 23:12:00,38.6,38.0,30.20,ESE,121,0.0,1.0,97,0.00,,,0.36,weatherlink.com 1.10,2013-02-23 04:12:00,
2013-02-22 23:27:00,38.4,38.0,30.21,ESE,123,0.0,3.0,97,0.00,,,0.36,weatherlink.com 1.10,2013-02-23 04:27:00,
2013-02-22 23:42:00,38.2,38.0,30.20,ESE,123,0.0,2.0,97,0.00,,,0.36,weatherlink.com 1.10,2013-02-23 04:42:00,
2013-02-22 23:57:00,38.1,37.0,30.21,ESE,123,0.0,2.0,97,0.00,,,0.36,weatherlink.com 1.10,2013-02-23 04:57:00,